sensor_id;sensor_type;location;lat;lon;timestamp;temperature;humidity
12164;DHT22;6145;50.192;10.064;2022-07-25T00:01:09;24.70;51.00
12164;DHT22;6145;50.192;10.064;2022-07-25T00:03:37;22.90;49.60
12164;DHT22;6145;50.192;10.064;2022-07-25T00:06:04;22.90;49.70
12164;DHT22;6145;50.192;10.064;2022-07-25T00:08:31;22.80;49.70
12164;DHT22;6145;50.192;10.064;2022-07-25T00:10:58;22.80;49.80
12164;DHT22;6145;50.192;10.064;2022-07-25T00:13:25;22.90;50.00
12164;DHT22;6145;50.192;10.064;2022-07-25T00:15:52;22.80;50.00
12164;DHT22;6145;50.192;10.064;2022-07-25T00:18:18;22.70;50.10
12164;DHT22;6145;50.192;10.064;2022-07-25T00:20:47;23.30;50.70
12164;DHT22;6145;50.192;10.064;2022-07-25T00:23:13;22.60;50.20
12164;DHT22;6145;50.192;10.064;2022-07-25T00:25:40;22.50;50.20
12164;DHT22;6145;50.192;10.064;2022-07-25T00:28:07;22.50;50.30
12164;DHT22;6145;50.192;10.064;2022-07-25T00:30:34;22.50;50.40
12164;DHT22;6145;50.192;10.064;2022-07-25T00:33:00;22.30;50.30
12164;DHT22;6145;50.192;10.064;2022-07-25T00:35:27;22.40;50.50
12164;DHT22;6145;50.192;10.064;2022-07-25T00:37:55;22.40;50.60
12164;DHT22;6145;50.192;10.064;2022-07-25T00:40:22;22.30;50.60
12164;DHT22;6145;50.192;10.064;2022-07-25T00:42:49;22.30;50.70
12164;DHT22;6145;50.192;10.064;2022-07-25T00:45:16;22.30;50.90
12164;DHT22;6145;50.192;10.064;2022-07-25T00:47:42;22.30;50.90
12164;DHT22;6145;50.192;10.064;2022-07-25T00:50:09;22.20;50.90
12164;DHT22;6145;50.192;10.064;2022-07-25T00:52:36;22.20;51.00
12164;DHT22;6145;50.192;10.064;2022-07-25T00:55:05;22.10;51.10
12164;DHT22;6145;50.192;10.064;2022-07-25T00:57:33;22.10;51.20
12164;DHT22;6145;50.192;10.064;2022-07-25T00:59:59;22.30;51.40
12164;DHT22;6145;50.192;10.064;2022-07-25T01:02:26;22.00;51.30
12164;DHT22;6145;50.192;10.064;2022-07-25T01:04:53;22.00;51.40
12164;DHT22;6145;50.192;10.064;2022-07-25T01:07:21;22.00;51.50
12164;DHT22;6145;50.192;10.064;2022-07-25T01:09:48;22.00;51.60
12164;DHT22;6145;50.192;10.064;2022-07-25T01:12:17;21.90;51.60
12164;DHT22;6145;50.192;10.064;2022-07-25T01:14:44;21.90;51.70
12164;DHT22;6145;50.192;10.064;2022-07-25T01:17:11;21.90;51.80
12164;DHT22;6145;50.192;10.064;2022-07-25T01:19:38;21.80;51.80
12164;DHT22;6145;50.192;10.064;2022-07-25T01:22:07;21.80;51.90
12164;DHT22;6145;50.192;10.064;2022-07-25T01:24:34;21.80;52.00
12164;DHT22;6145;50.192;10.064;2022-07-25T01:27:01;21.70;52.00
12164;DHT22;6145;50.192;10.064;2022-07-25T01:29:28;21.70;52.70
12164;DHT22;6145;50.192;10.064;2022-07-25T01:31:55;21.60;52.10
12164;DHT22;6145;50.192;10.064;2022-07-25T01:34:23;21.60;52.20
12164;DHT22;6145;50.192;10.064;2022-07-25T01:36:50;21.60;52.30
12164;DHT22;6145;50.192;10.064;2022-07-25T01:39:18;21.60;52.40
12164;DHT22;6145;50.192;10.064;2022-07-25T01:41:44;21.50;52.40
12164;DHT22;6145;50.192;10.064;2022-07-25T01:44:11;21.50;52.50
12164;DHT22;6145;50.192;10.064;2022-07-25T01:46:38;21.50;52.50
12164;DHT22;6145;50.192;10.064;2022-07-25T01:49:05;21.50;52.70
12164;DHT22;6145;50.192;10.064;2022-07-25T01:51:32;21.40;52.70
12164;DHT22;6145;50.192;10.064;2022-07-25T01:53:58;21.30;52.70
12164;DHT22;6145;50.192;10.064;2022-07-25T01:56:27;21.30;52.80
12164;DHT22;6145;50.192;10.064;2022-07-25T01:58:53;21.30;53.60
12164;DHT22;6145;50.192;10.064;2022-07-25T02:01:20;21.30;53.00
12164;DHT22;6145;50.192;10.064;2022-07-25T02:03:47;21.20;53.10
12164;DHT22;6145;50.192;10.064;2022-07-25T02:06:14;21.20;53.20
12164;DHT22;6145;50.192;10.064;2022-07-25T02:08:41;21.10;53.30
12164;DHT22;6145;50.192;10.064;2022-07-25T02:11:08;21.10;53.40
12164;DHT22;6145;50.192;10.064;2022-07-25T02:13:36;21.00;53.30
12164;DHT22;6145;50.192;10.064;2022-07-25T02:16:03;21.10;53.50
12164;DHT22;6145;50.192;10.064;2022-07-25T02:18:29;21.10;53.60
12164;DHT22;6145;50.192;10.064;2022-07-25T02:20:56;21.00;53.60
12164;DHT22;6145;50.192;10.064;2022-07-25T02:23:23;21.00;53.70
12164;DHT22;6145;50.192;10.064;2022-07-25T02:25:50;20.90;53.70
12164;DHT22;6145;50.192;10.064;2022-07-25T02:28:16;20.90;53.80
12164;DHT22;6145;50.192;10.064;2022-07-25T02:30:45;20.80;53.80
12164;DHT22;6145;50.192;10.064;2022-07-25T02:33:11;20.80;53.90
12164;DHT22;6145;50.192;10.064;2022-07-25T02:35:38;20.80;54.00
12164;DHT22;6145;50.192;10.064;2022-07-25T02:38:05;20.80;54.10
12164;DHT22;6145;50.192;10.064;2022-07-25T02:40:32;20.80;54.10
12164;DHT22;6145;50.192;10.064;2022-07-25T02:43:00;20.80;54.20
12164;DHT22;6145;50.192;10.064;2022-07-25T02:45:27;20.70;54.20
12164;DHT22;6145;50.192;10.064;2022-07-25T02:47:55;20.70;54.30
12164;DHT22;6145;50.192;10.064;2022-07-25T02:50:22;20.70;54.30
12164;DHT22;6145;50.192;10.064;2022-07-25T02:52:49;20.60;54.40
12164;DHT22;6145;50.192;10.064;2022-07-25T02:55:15;20.60;54.50
12164;DHT22;6145;50.192;10.064;2022-07-25T02:57:42;21.10;55.00
12164;DHT22;6145;50.192;10.064;2022-07-25T03:00:10;20.50;54.50
12164;DHT22;6145;50.192;10.064;2022-07-25T03:02:37;20.50;54.60
12164;DHT22;6145;50.192;10.064;2022-07-25T03:05:07;20.50;54.70
12164;DHT22;6145;50.192;10.064;2022-07-25T03:07:34;20.50;54.80
12164;DHT22;6145;50.192;10.064;2022-07-25T03:10:01;20.60;55.00
12164;DHT22;6145;50.192;10.064;2022-07-25T03:12:28;20.60;55.00
12164;DHT22;6145;50.192;10.064;2022-07-25T03:14:57;20.40;54.90
12164;DHT22;6145;50.192;10.064;2022-07-25T03:17:24;20.40;55.00
12164;DHT22;6145;50.192;10.064;2022-07-25T03:19:51;20.30;55.00
12164;DHT22;6145;50.192;10.064;2022-07-25T03:22:19;20.30;55.00
12164;DHT22;6145;50.192;10.064;2022-07-25T03:24:46;20.30;55.10
12164;DHT22;6145;50.192;10.064;2022-07-25T03:27:14;20.30;55.20
12164;DHT22;6145;50.192;10.064;2022-07-25T03:29:41;20.20;55.20
12164;DHT22;6145;50.192;10.064;2022-07-25T03:32:08;20.20;55.20
12164;DHT22;6145;50.192;10.064;2022-07-25T03:34:35;20.10;55.20
12164;DHT22;6145;50.192;10.064;2022-07-25T03:37:02;20.10;55.30
12164;DHT22;6145;50.192;10.064;2022-07-25T03:39:32;20.10;55.40
12164;DHT22;6145;50.192;10.064;2022-07-25T03:41:58;21.20;56.40
12164;DHT22;6145;50.192;10.064;2022-07-25T03:44:26;20.00;55.40
12164;DHT22;6145;50.192;10.064;2022-07-25T03:46:52;20.00;55.50
12164;DHT22;6145;50.192;10.064;2022-07-25T03:49:19;20.40;55.90
12164;DHT22;6145;50.192;10.064;2022-07-25T03:51:46;20.00;55.60
12164;DHT22;6145;50.192;10.064;2022-07-25T03:54:13;20.10;55.70
12164;DHT22;6145;50.192;10.064;2022-07-25T03:56:44;20.30;56.00
12164;DHT22;6145;50.192;10.064;2022-07-25T03:59:13;19.90;55.80
12164;DHT22;6145;50.192;10.064;2022-07-25T04:01:41;19.90;56.50
12164;DHT22;6145;50.192;10.064;2022-07-25T04:04:08;19.90;55.90
12164;DHT22;6145;50.192;10.064;2022-07-25T04:06:35;19.80;55.90
12164;DHT22;6145;50.192;10.064;2022-07-25T04:09:03;19.80;56.00
12164;DHT22;6145;50.192;10.064;2022-07-25T04:11:30;19.80;56.00
12164;DHT22;6145;50.192;10.064;2022-07-25T04:13:58;19.80;56.00
12164;DHT22;6145;50.192;10.064;2022-07-25T04:16:25;19.80;56.20
12164;DHT22;6145;50.192;10.064;2022-07-25T04:18:51;19.80;56.20
12164;DHT22;6145;50.192;10.064;2022-07-25T04:21:18;19.70;56.20
12164;DHT22;6145;50.192;10.064;2022-07-25T04:23:45;19.60;56.20
12164;DHT22;6145;50.192;10.064;2022-07-25T04:26:12;19.80;56.50
12164;DHT22;6145;50.192;10.064;2022-07-25T04:28:39;19.50;56.20
12164;DHT22;6145;50.192;10.064;2022-07-25T04:31:07;19.80;56.60
12164;DHT22;6145;50.192;10.064;2022-07-25T04:33:35;19.70;56.60
12164;DHT22;6145;50.192;10.064;2022-07-25T04:36:03;19.70;56.60
12164;DHT22;6145;50.192;10.064;2022-07-25T04:38:30;19.70;56.70
12164;DHT22;6145;50.192;10.064;2022-07-25T04:40:56;19.60;56.60
12164;DHT22;6145;50.192;10.064;2022-07-25T04:43:24;19.70;56.80
12164;DHT22;6145;50.192;10.064;2022-07-25T04:45:50;19.70;56.90
12164;DHT22;6145;50.192;10.064;2022-07-25T04:48:19;19.70;56.90
12164;DHT22;6145;50.192;10.064;2022-07-25T04:50:46;19.70;56.90
12164;DHT22;6145;50.192;10.064;2022-07-25T04:53:13;19.80;57.00
12164;DHT22;6145;50.192;10.064;2022-07-25T04:55:40;19.70;57.00
12164;DHT22;6145;50.192;10.064;2022-07-25T04:58:06;19.70;57.00
12164;DHT22;6145;50.192;10.064;2022-07-25T05:00:33;19.90;57.20
12164;DHT22;6145;50.192;10.064;2022-07-25T05:03:00;19.70;57.10
12164;DHT22;6145;50.192;10.064;2022-07-25T05:05:28;19.80;57.20
12164;DHT22;6145;50.192;10.064;2022-07-25T05:07:57;19.80;57.20
12164;DHT22;6145;50.192;10.064;2022-07-25T05:10:25;19.90;57.40
12164;DHT22;6145;50.192;10.064;2022-07-25T05:12:52;19.80;57.30
12164;DHT22;6145;50.192;10.064;2022-07-25T05:15:19;19.80;57.30
12164;DHT22;6145;50.192;10.064;2022-07-25T05:17:46;19.80;57.40
12164;DHT22;6145;50.192;10.064;2022-07-25T05:20:12;19.90;57.60
12164;DHT22;6145;50.192;10.064;2022-07-25T05:22:41;19.80;57.60
12164;DHT22;6145;50.192;10.064;2022-07-25T05:25:09;19.80;57.60
12164;DHT22;6145;50.192;10.064;2022-07-25T05:27:37;19.90;57.70
12164;DHT22;6145;50.192;10.064;2022-07-25T05:30:05;19.90;57.70
12164;DHT22;6145;50.192;10.064;2022-07-25T05:32:32;19.90;57.80
12164;DHT22;6145;50.192;10.064;2022-07-25T05:35:00;19.80;57.60
12164;DHT22;6145;50.192;10.064;2022-07-25T05:37:26;19.90;57.70
12164;DHT22;6145;50.192;10.064;2022-07-25T05:39:55;19.90;57.70
12164;DHT22;6145;50.192;10.064;2022-07-25T05:42:46;20.10;57.90
12164;DHT22;6145;50.192;10.064;2022-07-25T05:45:13;20.00;57.70
12164;DHT22;6145;50.192;10.064;2022-07-25T05:47:40;20.00;57.70
12164;DHT22;6145;50.192;10.064;2022-07-25T05:50:08;20.30;57.90
12164;DHT22;6145;50.192;10.064;2022-07-25T05:52:35;20.10;57.80
12164;DHT22;6145;50.192;10.064;2022-07-25T05:55:04;20.40;58.20
12164;DHT22;6145;50.192;10.064;2022-07-25T05:57:31;20.30;59.30
12164;DHT22;6145;50.192;10.064;2022-07-25T05:59:58;20.50;60.40
12164;DHT22;6145;50.192;10.064;2022-07-25T06:02:25;20.80;60.00
12164;DHT22;6145;50.192;10.064;2022-07-25T06:04:52;21.30;60.10
12164;DHT22;6145;50.192;10.064;2022-07-25T06:07:18;21.50;59.80
12164;DHT22;6145;50.192;10.064;2022-07-25T06:09:45;21.90;59.50
12164;DHT22;6145;50.192;10.064;2022-07-25T06:12:14;22.40;58.60
12164;DHT22;6145;50.192;10.064;2022-07-25T06:14:41;22.90;57.90
12164;DHT22;6145;50.192;10.064;2022-07-25T06:17:08;23.30;57.40
12164;DHT22;6145;50.192;10.064;2022-07-25T06:19:34;23.60;56.50
12164;DHT22;6145;50.192;10.064;2022-07-25T06:22:01;24.00;56.10
12164;DHT22;6145;50.192;10.064;2022-07-25T06:24:28;24.60;55.20
12164;DHT22;6145;50.192;10.064;2022-07-25T06:26:55;25.00;54.40
12164;DHT22;6145;50.192;10.064;2022-07-25T06:29:23;25.30;53.60
12164;DHT22;6145;50.192;10.064;2022-07-25T06:31:50;25.80;52.50
12164;DHT22;6145;50.192;10.064;2022-07-25T06:34:17;26.20;51.10
12164;DHT22;6145;50.192;10.064;2022-07-25T06:36:44;26.40;49.90
12164;DHT22;6145;50.192;10.064;2022-07-25T06:39:11;26.90;50.10
12164;DHT22;6145;50.192;10.064;2022-07-25T06:41:38;27.30;49.70
12164;DHT22;6145;50.192;10.064;2022-07-25T06:44:05;27.50;48.60
12164;DHT22;6145;50.192;10.064;2022-07-25T06:46:33;27.90;48.10
12164;DHT22;6145;50.192;10.064;2022-07-25T06:49:00;28.40;47.50
12164;DHT22;6145;50.192;10.064;2022-07-25T06:51:27;28.70;47.00
12164;DHT22;6145;50.192;10.064;2022-07-25T06:53:54;29.10;46.20
12164;DHT22;6145;50.192;10.064;2022-07-25T06:56:21;29.40;45.90
12164;DHT22;6145;50.192;10.064;2022-07-25T06:58:48;29.80;45.10
12164;DHT22;6145;50.192;10.064;2022-07-25T07:01:20;30.10;44.40
12164;DHT22;6145;50.192;10.064;2022-07-25T07:03:49;30.50;43.20
12164;DHT22;6145;50.192;10.064;2022-07-25T07:06:16;30.80;42.80
12164;DHT22;6145;50.192;10.064;2022-07-25T07:08:42;31.10;42.40
12164;DHT22;6145;50.192;10.064;2022-07-25T07:11:09;31.30;42.20
12164;DHT22;6145;50.192;10.064;2022-07-25T07:13:37;31.50;41.80
12164;DHT22;6145;50.192;10.064;2022-07-25T07:16:05;31.90;41.40
12164;DHT22;6145;50.192;10.064;2022-07-25T07:18:31;32.10;40.80
12164;DHT22;6145;50.192;10.064;2022-07-25T07:21:00;32.40;40.50
12164;DHT22;6145;50.192;10.064;2022-07-25T07:23:26;32.70;40.20
12164;DHT22;6145;50.192;10.064;2022-07-25T07:25:53;33.10;39.90
12164;DHT22;6145;50.192;10.064;2022-07-25T07:28:20;33.30;39.30
12164;DHT22;6145;50.192;10.064;2022-07-25T07:30:47;33.50;38.90
12164;DHT22;6145;50.192;10.064;2022-07-25T07:33:14;33.80;38.30
12164;DHT22;6145;50.192;10.064;2022-07-25T07:35:42;34.00;38.10
12164;DHT22;6145;50.192;10.064;2022-07-25T07:38:11;34.30;38.00
12164;DHT22;6145;50.192;10.064;2022-07-25T07:40:37;34.50;37.80
12164;DHT22;6145;50.192;10.064;2022-07-25T07:43:04;34.60;37.10
12164;DHT22;6145;50.192;10.064;2022-07-25T07:45:31;34.80;36.50
12164;DHT22;6145;50.192;10.064;2022-07-25T07:47:58;34.90;36.30
12164;DHT22;6145;50.192;10.064;2022-07-25T07:50:26;35.10;36.30
12164;DHT22;6145;50.192;10.064;2022-07-25T07:52:54;35.30;36.00
12164;DHT22;6145;50.192;10.064;2022-07-25T07:55:24;35.50;36.10
12164;DHT22;6145;50.192;10.064;2022-07-25T07:58:10;35.70;35.70
12164;DHT22;6145;50.192;10.064;2022-07-25T08:00:37;35.80;35.50
12164;DHT22;6145;50.192;10.064;2022-07-25T08:03:05;35.90;35.30
12164;DHT22;6145;50.192;10.064;2022-07-25T08:05:35;36.10;35.30
12164;DHT22;6145;50.192;10.064;2022-07-25T08:08:03;36.30;35.00
12164;DHT22;6145;50.192;10.064;2022-07-25T08:10:34;36.40;35.00
12164;DHT22;6145;50.192;10.064;2022-07-25T08:13:02;36.60;34.50
12164;DHT22;6145;50.192;10.064;2022-07-25T08:15:36;36.70;33.70
12164;DHT22;6145;50.192;10.064;2022-07-25T08:18:03;36.60;33.00
12164;DHT22;6145;50.192;10.064;2022-07-25T08:20:30;36.40;33.30
12164;DHT22;6145;50.192;10.064;2022-07-25T08:22:57;36.40;33.70
12164;DHT22;6145;50.192;10.064;2022-07-25T08:25:24;36.50;33.70
12164;DHT22;6145;50.192;10.064;2022-07-25T08:27:53;36.60;34.20
12164;DHT22;6145;50.192;10.064;2022-07-25T08:30:20;36.70;33.60
12164;DHT22;6145;50.192;10.064;2022-07-25T08:32:48;36.80;33.80
12164;DHT22;6145;50.192;10.064;2022-07-25T08:35:17;37.00;33.80
12164;DHT22;6145;50.192;10.064;2022-07-25T08:37:44;37.20;33.30
12164;DHT22;6145;50.192;10.064;2022-07-25T08:40:12;37.30;33.30
12164;DHT22;6145;50.192;10.064;2022-07-25T08:42:40;37.30;32.20
12164;DHT22;6145;50.192;10.064;2022-07-25T08:45:11;37.30;32.20
12164;DHT22;6145;50.192;10.064;2022-07-25T08:47:39;37.20;32.20
12164;DHT22;6145;50.192;10.064;2022-07-25T08:50:08;37.10;32.20
12164;DHT22;6145;50.192;10.064;2022-07-25T08:52:37;37.00;32.20
12164;DHT22;6145;50.192;10.064;2022-07-25T08:55:05;37.00;32.30
12164;DHT22;6145;50.192;10.064;2022-07-25T08:57:32;37.00;32.50
12164;DHT22;6145;50.192;10.064;2022-07-25T09:00:00;37.00;32.60
12164;DHT22;6145;50.192;10.064;2022-07-25T09:02:28;37.20;33.00
12164;DHT22;6145;50.192;10.064;2022-07-25T09:04:58;37.30;32.80
12164;DHT22;6145;50.192;10.064;2022-07-25T09:07:29;37.50;32.80
12164;DHT22;6145;50.192;10.064;2022-07-25T09:09:56;37.50;32.10
12164;DHT22;6145;50.192;10.064;2022-07-25T09:12:25;37.60;32.30
12164;DHT22;6145;50.192;10.064;2022-07-25T09:14:52;37.70;32.40
12164;DHT22;6145;50.192;10.064;2022-07-25T09:17:19;37.80;32.30
12164;DHT22;6145;50.192;10.064;2022-07-25T09:19:52;37.90;32.00
12164;DHT22;6145;50.192;10.064;2022-07-25T09:22:19;38.00;32.00
12164;DHT22;6145;50.192;10.064;2022-07-25T09:24:46;38.10;32.00
12164;DHT22;6145;50.192;10.064;2022-07-25T09:27:13;38.10;32.40
12164;DHT22;6145;50.192;10.064;2022-07-25T09:29:42;38.20;31.50
12164;DHT22;6145;50.192;10.064;2022-07-25T09:32:14;38.30;31.30
12164;DHT22;6145;50.192;10.064;2022-07-25T09:34:49;38.30;30.60
12164;DHT22;6145;50.192;10.064;2022-07-25T09:37:23;38.20;31.00
12164;DHT22;6145;50.192;10.064;2022-07-25T09:39:51;38.30;31.20
12164;DHT22;6145;50.192;10.064;2022-07-25T09:42:20;38.40;31.20
12164;DHT22;6145;50.192;10.064;2022-07-25T09:45:53;38.50;31.10
12164;DHT22;6145;50.192;10.064;2022-07-25T09:48:23;38.70;31.20
12164;DHT22;6145;50.192;10.064;2022-07-25T09:50:50;38.80;30.70
12164;DHT22;6145;50.192;10.064;2022-07-25T09:53:19;38.90;30.70
12164;DHT22;6145;50.192;10.064;2022-07-25T09:55:46;39.00;30.80
12164;DHT22;6145;50.192;10.064;2022-07-25T09:58:13;39.20;30.30
12164;DHT22;6145;50.192;10.064;2022-07-25T10:00:40;39.30;30.20
12164;DHT22;6145;50.192;10.064;2022-07-25T10:03:24;39.40;30.10
12164;DHT22;6145;50.192;10.064;2022-07-25T10:06:05;39.60;30.20
12164;DHT22;6145;50.192;10.064;2022-07-25T10:08:37;39.70;29.70
12164;DHT22;6145;50.192;10.064;2022-07-25T10:11:04;39.70;29.60
12164;DHT22;6145;50.192;10.064;2022-07-25T10:13:34;39.80;29.60
12164;DHT22;6145;50.192;10.064;2022-07-25T10:16:13;39.90;29.40
12164;DHT22;6145;50.192;10.064;2022-07-25T10:18:47;40.10;29.20
12164;DHT22;6145;50.192;10.064;2022-07-25T10:21:14;40.20;28.80
12164;DHT22;6145;50.192;10.064;2022-07-25T10:23:42;40.30;28.50
12164;DHT22;6145;50.192;10.064;2022-07-25T10:26:12;40.30;28.00
12164;DHT22;6145;50.192;10.064;2022-07-25T10:28:42;40.30;27.90
12164;DHT22;6145;50.192;10.064;2022-07-25T10:31:20;40.40;27.80
12164;DHT22;6145;50.192;10.064;2022-07-25T10:33:51;40.40;27.80
12164;DHT22;6145;50.192;10.064;2022-07-25T10:36:19;40.50;27.70
12164;DHT22;6145;50.192;10.064;2022-07-25T10:38:50;40.60;27.80
12164;DHT22;6145;50.192;10.064;2022-07-25T10:41:22;40.60;27.50
12164;DHT22;6145;50.192;10.064;2022-07-25T10:43:50;40.70;27.50
12164;DHT22;6145;50.192;10.064;2022-07-25T10:46:18;40.80;27.40
12164;DHT22;6145;50.192;10.064;2022-07-25T10:48:57;40.90;27.30
12164;DHT22;6145;50.192;10.064;2022-07-25T10:51:26;40.80;26.90
12164;DHT22;6145;50.192;10.064;2022-07-25T10:53:54;41.00;26.70
12164;DHT22;6145;50.192;10.064;2022-07-25T10:56:23;41.00;26.60
12164;DHT22;6145;50.192;10.064;2022-07-25T10:58:54;41.00;26.60
12164;DHT22;6145;50.192;10.064;2022-07-25T11:01:23;41.00;26.70
12164;DHT22;6145;50.192;10.064;2022-07-25T11:03:51;41.00;26.30
12164;DHT22;6145;50.192;10.064;2022-07-25T11:06:30;40.90;26.10
12164;DHT22;6145;50.192;10.064;2022-07-25T11:08:58;40.80;26.10
12164;DHT22;6145;50.192;10.064;2022-07-25T11:11:32;40.70;26.20
12164;DHT22;6145;50.192;10.064;2022-07-25T11:14:01;40.70;26.30
12164;DHT22;6145;50.192;10.064;2022-07-25T11:16:28;40.80;26.40
12164;DHT22;6145;50.192;10.064;2022-07-25T11:18:55;40.80;26.40
12164;DHT22;6145;50.192;10.064;2022-07-25T11:21:22;40.70;26.30
12164;DHT22;6145;50.192;10.064;2022-07-25T11:23:50;40.80;26.50
12164;DHT22;6145;50.192;10.064;2022-07-25T11:26:18;40.90;26.50
12164;DHT22;6145;50.192;10.064;2022-07-25T11:28:48;41.00;26.60
12164;DHT22;6145;50.192;10.064;2022-07-25T11:31:16;41.20;26.60
12164;DHT22;6145;50.192;10.064;2022-07-25T11:34:12;41.30;26.10
12164;DHT22;6145;50.192;10.064;2022-07-25T11:36:39;41.40;25.90
12164;DHT22;6145;50.192;10.064;2022-07-25T11:39:06;41.40;25.50
12164;DHT22;6145;50.192;10.064;2022-07-25T11:41:35;41.50;25.10
12164;DHT22;6145;50.192;10.064;2022-07-25T11:44:02;41.40;24.80
12164;DHT22;6145;50.192;10.064;2022-07-25T11:46:29;41.40;25.00
12164;DHT22;6145;50.192;10.064;2022-07-25T11:49:08;41.50;25.00
12164;DHT22;6145;50.192;10.064;2022-07-25T11:51:38;41.50;24.80
12164;DHT22;6145;50.192;10.064;2022-07-25T11:54:10;41.50;24.80
12164;DHT22;6145;50.192;10.064;2022-07-25T11:56:39;41.40;24.80
12164;DHT22;6145;50.192;10.064;2022-07-25T11:59:08;41.30;24.60
12164;DHT22;6145;50.192;10.064;2022-07-25T12:01:36;41.10;24.60
12164;DHT22;6145;50.192;10.064;2022-07-25T12:04:11;40.90;24.60
12164;DHT22;6145;50.192;10.064;2022-07-25T12:06:40;40.60;24.80
12164;DHT22;6145;50.192;10.064;2022-07-25T12:09:11;40.50;25.10
12164;DHT22;6145;50.192;10.064;2022-07-25T12:11:40;40.40;25.30
12164;DHT22;6145;50.192;10.064;2022-07-25T12:14:08;40.40;25.50
12164;DHT22;6145;50.192;10.064;2022-07-25T12:16:35;40.30;25.50
12164;DHT22;6145;50.192;10.064;2022-07-25T12:19:03;40.30;25.50
12164;DHT22;6145;50.192;10.064;2022-07-25T12:21:30;40.20;25.30
12164;DHT22;6145;50.192;10.064;2022-07-25T12:23:57;40.00;25.40
12164;DHT22;6145;50.192;10.064;2022-07-25T12:26:24;40.00;25.70
12164;DHT22;6145;50.192;10.064;2022-07-25T12:28:52;40.00;25.70
12164;DHT22;6145;50.192;10.064;2022-07-25T12:31:19;40.00;25.80
12164;DHT22;6145;50.192;10.064;2022-07-25T12:33:46;40.00;25.90
12164;DHT22;6145;50.192;10.064;2022-07-25T12:36:13;40.00;25.50
12164;DHT22;6145;50.192;10.064;2022-07-25T12:38:40;39.90;25.20
12164;DHT22;6145;50.192;10.064;2022-07-25T12:41:07;39.80;25.40
12164;DHT22;6145;50.192;10.064;2022-07-25T12:43:35;39.90;25.30
12164;DHT22;6145;50.192;10.064;2022-07-25T12:46:04;40.00;25.10
12164;DHT22;6145;50.192;10.064;2022-07-25T12:48:31;40.00;25.10
12164;DHT22;6145;50.192;10.064;2022-07-25T12:50:58;40.10;25.00
12164;DHT22;6145;50.192;10.064;2022-07-25T12:53:25;40.10;25.10
12164;DHT22;6145;50.192;10.064;2022-07-25T12:55:51;40.10;25.10
12164;DHT22;6145;50.192;10.064;2022-07-25T12:58:18;40.00;25.10
12164;DHT22;6145;50.192;10.064;2022-07-25T13:00:45;39.90;25.20
12164;DHT22;6145;50.192;10.064;2022-07-25T13:03:15;39.80;25.80
12164;DHT22;6145;50.192;10.064;2022-07-25T13:05:42;39.70;25.40
12164;DHT22;6145;50.192;10.064;2022-07-25T13:08:09;39.60;25.50
12164;DHT22;6145;50.192;10.064;2022-07-25T13:10:36;39.50;25.10
12164;DHT22;6145;50.192;10.064;2022-07-25T13:13:03;39.30;25.00
12164;DHT22;6145;50.192;10.064;2022-07-25T13:15:33;39.20;25.10
12164;DHT22;6145;50.192;10.064;2022-07-25T13:18:05;38.90;25.30
12164;DHT22;6145;50.192;10.064;2022-07-25T13:20:33;38.80;25.50
12164;DHT22;6145;50.192;10.064;2022-07-25T13:23:02;38.70;25.80
12164;DHT22;6145;50.192;10.064;2022-07-25T13:25:29;38.60;26.10
12164;DHT22;6145;50.192;10.064;2022-07-25T13:27:55;38.50;26.40
12164;DHT22;6145;50.192;10.064;2022-07-25T13:30:22;38.50;26.60
12164;DHT22;6145;50.192;10.064;2022-07-25T13:32:49;38.40;26.60
12164;DHT22;6145;50.192;10.064;2022-07-25T13:35:17;38.40;26.70
12164;DHT22;6145;50.192;10.064;2022-07-25T13:37:46;38.50;26.80
12164;DHT22;6145;50.192;10.064;2022-07-25T13:40:13;38.60;26.90
12164;DHT22;6145;50.192;10.064;2022-07-25T13:42:40;38.70;26.70
12164;DHT22;6145;50.192;10.064;2022-07-25T13:45:07;38.70;26.40
12164;DHT22;6145;50.192;10.064;2022-07-25T13:47:34;38.70;26.80
12164;DHT22;6145;50.192;10.064;2022-07-25T13:50:01;38.60;26.20
12164;DHT22;6145;50.192;10.064;2022-07-25T13:52:28;38.60;26.30
12164;DHT22;6145;50.192;10.064;2022-07-25T13:54:56;38.60;26.30
12164;DHT22;6145;50.192;10.064;2022-07-25T13:57:23;38.60;26.30
12164;DHT22;6145;50.192;10.064;2022-07-25T13:59:50;38.60;26.40
12164;DHT22;6145;50.192;10.064;2022-07-25T14:02:17;38.70;26.40
12164;DHT22;6145;50.192;10.064;2022-07-25T14:04:44;38.70;26.30
12164;DHT22;6145;50.192;10.064;2022-07-25T14:07:11;38.60;26.40
12164;DHT22;6145;50.192;10.064;2022-07-25T14:09:39;38.60;26.60
12164;DHT22;6145;50.192;10.064;2022-07-25T14:12:07;38.60;26.50
12164;DHT22;6145;50.192;10.064;2022-07-25T14:14:34;38.70;26.70
12164;DHT22;6145;50.192;10.064;2022-07-25T14:17:01;38.70;26.70
12164;DHT22;6145;50.192;10.064;2022-07-25T14:19:28;38.80;26.80
12164;DHT22;6145;50.192;10.064;2022-07-25T14:21:55;38.90;26.70
12164;DHT22;6145;50.192;10.064;2022-07-25T14:24:22;39.00;26.50
12164;DHT22;6145;50.192;10.064;2022-07-25T14:26:48;39.10;26.10
12164;DHT22;6145;50.192;10.064;2022-07-25T14:29:17;39.10;26.00
12164;DHT22;6145;50.192;10.064;2022-07-25T14:31:43;39.10;26.00
12164;DHT22;6145;50.192;10.064;2022-07-25T14:34:10;39.10;25.90
12164;DHT22;6145;50.192;10.064;2022-07-25T14:36:39;39.10;26.30
12164;DHT22;6145;50.192;10.064;2022-07-25T14:39:06;39.00;25.80
12164;DHT22;6145;50.192;10.064;2022-07-25T14:41:33;38.90;25.90
12164;DHT22;6145;50.192;10.064;2022-07-25T14:44:00;38.80;25.90
12164;DHT22;6145;50.192;10.064;2022-07-25T14:46:28;38.70;25.70
12164;DHT22;6145;50.192;10.064;2022-07-25T14:48:55;38.50;25.70
12164;DHT22;6145;50.192;10.064;2022-07-25T14:51:22;38.30;25.80
12164;DHT22;6145;50.192;10.064;2022-07-25T14:53:49;38.10;26.10
12164;DHT22;6145;50.192;10.064;2022-07-25T14:56:16;37.70;26.10
12164;DHT22;6145;50.192;10.064;2022-07-25T14:58:43;37.70;26.40
12164;DHT22;6145;50.192;10.064;2022-07-25T15:01:10;37.60;26.60
12164;DHT22;6145;50.192;10.064;2022-07-25T15:03:38;37.50;26.80
12164;DHT22;6145;50.192;10.064;2022-07-25T15:06:05;37.30;26.90
12164;DHT22;6145;50.192;10.064;2022-07-25T15:08:35;37.20;27.10
12164;DHT22;6145;50.192;10.064;2022-07-25T15:11:02;37.10;27.30
12164;DHT22;6145;50.192;10.064;2022-07-25T15:13:29;37.00;27.50
12164;DHT22;6145;50.192;10.064;2022-07-25T15:15:56;36.90;27.60
12164;DHT22;6145;50.192;10.064;2022-07-25T15:18:23;36.80;27.80
12164;DHT22;6145;50.192;10.064;2022-07-25T15:20:51;36.70;27.90
12164;DHT22;6145;50.192;10.064;2022-07-25T15:23:19;36.50;28.00
12164;DHT22;6145;50.192;10.064;2022-07-25T15:25:49;36.40;28.10
12164;DHT22;6145;50.192;10.064;2022-07-25T15:28:16;36.20;28.40
12164;DHT22;6145;50.192;10.064;2022-07-25T15:30:43;36.10;28.80
12164;DHT22;6145;50.192;10.064;2022-07-25T15:33:12;36.00;28.90
12164;DHT22;6145;50.192;10.064;2022-07-25T15:35:39;35.90;29.10